createdAt,value
2023-07-03T00:00:22.249Z,191.53
2023-07-03T00:01:22.293Z,191.48
2023-07-03T00:02:22.748Z,190.18
2023-07-03T00:03:22.376Z,193.60
2023-07-03T00:04:22.468Z,193.89
2023-07-03T00:05:22.589Z,193.51
2023-07-03T00:06:22.536Z,193.90
2023-07-03T00:07:22.539Z,192.11
2023-07-03T00:08:22.590Z,194.38
2023-07-03T00:09:22.653Z,192.49
2023-07-03T00:10:22.693Z,190.59
2023-07-03T00:11:22.731Z,192.55
2023-07-03T00:12:22.815Z,192.30
2023-07-03T00:13:22.890Z,190.97
2023-07-03T00:14:22.916Z,190.38
2023-07-03T00:15:22.968Z,189.35
2023-07-03T00:16:23.067Z,189.13
2023-07-03T00:17:23.126Z,187.51
2023-07-03T00:18:23.130Z,188.49
2023-07-03T00:19:23.164Z,188.86
2023-07-03T00:20:23.230Z,190.33
2023-07-03T00:21:23.290Z,189.35
2023-07-03T00:22:23.337Z,191.82
2023-07-03T00:23:23.366Z,195.62
2023-07-03T00:24:23.454Z,194.81
2023-07-03T00:25:23.533Z,193.43
2023-07-03T00:26:23.542Z,194.06
2023-07-03T00:27:23.613Z,193.38
2023-07-03T00:28:23.673Z,190.88
2023-07-03T00:29:23.711Z,190.80
2023-07-03T00:30:23.782Z,189.40
2023-07-03T00:31:23.930Z,191.89
2023-07-03T00:32:23.898Z,187.98
2023-07-03T00:33:23.983Z,181.99
2023-07-03T00:34:24.019Z,180.45
2023-07-03T00:35:24.061Z,182.71
2023-07-03T00:36:24.129Z,180.78
2023-07-03T00:37:24.178Z,181.85
2023-07-03T00:38:24.213Z,179.59
2023-07-03T00:39:24.273Z,176.75
2023-07-03T00:40:24.330Z,177.98
2023-07-03T00:41:24.412Z,176.10
2023-07-03T00:42:24.434Z,176.61
2023-07-03T00:43:24.522Z,178.24
2023-07-03T00:44:24.559Z,177.80
2023-07-03T00:45:24.636Z,179.53
2023-07-03T00:46:24.687Z,179.32
2023-07-03T00:47:24.786Z,177.14
2023-07-03T00:48:24.779Z,173.35
2023-07-03T00:49:24.843Z,176.61
2023-07-03T00:50:24.889Z,178.00
2023-07-03T00:51:24.904Z,177.66
2023-07-03T00:52:24.977Z,177.65
2023-07-03T00:53:25.052Z,176.67
2023-07-03T00:54:25.055Z,179.52
2023-07-03T00:55:25.152Z,177.64
2023-07-03T00:56:25.224Z,177.46
2023-07-03T00:57:25.256Z,180.37
2023-07-03T00:58:25.311Z,178.86
2023-07-03T00:59:25.399Z,177.77
2023-07-03T01:00:25.430Z,176.55
2023-07-03T01:01:25.531Z,177.55
2023-07-03T01:02:25.587Z,178.09
2023-07-03T01:03:25.681Z,176.10
2023-07-03T01:04:25.806Z,175.12
2023-07-03T01:05:25.925Z,176.72
2023-07-03T01:06:25.782Z,174.34
2023-07-03T01:07:25.846Z,175.95
2023-07-03T01:08:25.923Z,179.74
2023-07-03T01:09:25.995Z,181.22
2023-07-03T01:10:26.054Z,176.60
2023-07-03T01:11:26.108Z,178.64
2023-07-03T01:12:26.168Z,175.19
2023-07-03T01:13:26.238Z,175.64
2023-07-03T01:14:26.306Z,176.27
2023-07-03T01:15:26.328Z,177.47
2023-07-03T01:16:26.451Z,178.37
2023-07-03T01:17:26.519Z,178.71
2023-07-03T01:18:26.538Z,179.50
2023-07-03T01:19:26.578Z,180.38
2023-07-03T01:20:26.671Z,177.73
2023-07-03T01:21:26.732Z,179.70
2023-07-03T01:22:26.737Z,180.51
2023-07-03T01:23:26.758Z,180.12
2023-07-03T01:24:26.848Z,182.30
2023-07-03T01:25:26.829Z,182.63
2023-07-03T01:26:26.863Z,183.42
2023-07-03T01:27:26.971Z,183.16
2023-07-03T01:28:26.892Z,185.11
2023-07-03T01:29:26.944Z,184.49
2023-07-03T01:30:26.926Z,186.64
2023-07-03T01:31:26.958Z,185.33
2023-07-03T01:32:26.990Z,186.14
2023-07-03T01:33:27.001Z,187.51
2023-07-03T01:34:27.028Z,186.00
2023-07-03T01:35:27.038Z,183.64
2023-07-03T01:36:27.126Z,184.01
2023-07-03T01:37:27.113Z,182.37
2023-07-03T01:38:27.162Z,181.96
2023-07-03T01:39:27.190Z,184.86
2023-07-03T01:40:27.212Z,184.80
2023-07-03T01:41:27.248Z,185.30
2023-07-03T01:42:27.243Z,186.39
2023-07-03T01:43:27.309Z,185.94
2023-07-03T01:44:27.326Z,186.72
2023-07-03T01:45:27.298Z,186.43
2023-07-03T01:46:27.382Z,183.24
2023-07-03T01:47:27.407Z,183.99
2023-07-03T01:48:27.344Z,183.52
2023-07-03T01:49:27.364Z,181.04
2023-07-03T01:50:27.374Z,180.03
2023-07-03T01:51:27.338Z,182.83
2023-07-03T01:52:27.319Z,183.62
2023-07-03T01:53:27.337Z,182.01
2023-07-03T01:54:27.346Z,180.09
2023-07-03T01:55:27.325Z,180.61
2023-07-03T01:56:27.329Z,176.66
2023-07-03T01:57:27.370Z,177.03
2023-07-03T01:58:27.439Z,176.97
2023-07-03T01:59:27.362Z,180.27
2023-07-03T02:00:27.433Z,183.67
2023-07-03T02:01:27.454Z,179.12
2023-07-03T02:02:27.501Z,178.40
2023-07-03T02:03:27.479Z,178.14
2023-07-03T02:04:27.431Z,178.38
2023-07-03T02:05:27.408Z,177.73
2023-07-03T02:06:27.420Z,179.43
2023-07-03T02:07:27.405Z,180.95
2023-07-03T02:08:27.408Z,181.70
2023-07-03T02:09:27.431Z,181.55
2023-07-03T02:10:27.407Z,181.10
2023-07-03T02:11:27.438Z,181.41
2023-07-03T02:12:27.441Z,183.33
2023-07-03T02:13:27.488Z,183.36
2023-07-03T02:14:27.527Z,185.09
2023-07-03T02:15:27.557Z,185.65
2023-07-03T02:16:27.618Z,188.10
2023-07-03T02:17:27.594Z,188.56
2023-07-03T02:18:27.564Z,190.67
2023-07-03T02:19:27.560Z,190.79
2023-07-03T02:20:27.574Z,192.05
2023-07-03T02:21:27.572Z,189.47
2023-07-03T02:22:27.596Z,189.93
2023-07-03T02:23:27.573Z,191.04
2023-07-03T02:24:27.629Z,191.30
2023-07-03T02:25:27.610Z,190.24
2023-07-03T02:26:27.633Z,190.95
2023-07-03T02:27:27.647Z,191.59
2023-07-03T02:28:27.665Z,190.36
2023-07-03T02:29:27.650Z,190.12
2023-07-03T02:30:27.752Z,188.29
2023-07-03T02:31:27.792Z,188.63
2023-07-03T02:32:27.724Z,186.03
2023-07-03T02:33:27.709Z,187.58
2023-07-03T02:34:27.714Z,188.16
2023-07-03T02:35:27.696Z,188.80
2023-07-03T02:36:27.718Z,189.01
2023-07-03T02:37:27.754Z,187.29
2023-07-03T02:38:27.741Z,187.29
2023-07-03T02:39:27.772Z,189.31
2023-07-03T02:40:27.778Z,188.45
2023-07-03T02:41:27.807Z,188.67
2023-07-03T02:42:27.814Z,189.16
2023-07-03T02:43:27.790Z,190.22
2023-07-03T02:44:27.856Z,188.17
2023-07-03T02:45:27.813Z,188.27
2023-07-03T02:46:27.842Z,189.96
2023-07-03T02:47:28.073Z,190.78
2023-07-03T02:48:27.873Z,187.21
2023-07-03T02:49:27.956Z,188.96
2023-07-03T02:50:27.901Z,188.78
2023-07-03T02:51:27.934Z,186.60
2023-07-03T02:52:27.936Z,186.72
2023-07-03T02:53:27.987Z,186.95
2023-07-03T02:54:27.939Z,186.68
2023-07-03T02:55:27.983Z,184.94
2023-07-03T02:56:28.009Z,186.58
2023-07-03T02:57:27.972Z,184.92
2023-07-03T02:58:28.057Z,184.82
2023-07-03T02:59:28.043Z,182.68
2023-07-03T03:00:28.048Z,180.90
2023-07-03T03:01:28.065Z,182.12
2023-07-03T03:02:28.089Z,182.51
2023-07-03T03:03:28.188Z,182.83
2023-07-03T03:04:28.066Z,180.17
2023-07-03T03:05:28.075Z,179.81
2023-07-03T03:06:28.080Z,181.30
2023-07-03T03:07:28.124Z,180.67
2023-07-03T03:08:28.127Z,179.03
2023-07-03T03:09:28.154Z,179.22
2023-07-03T03:10:28.147Z,181.55
2023-07-03T03:11:28.167Z,182.41
2023-07-03T03:12:28.201Z,181.29
2023-07-03T03:13:28.198Z,179.53
2023-07-03T03:14:28.288Z,178.01
2023-07-03T03:15:28.268Z,177.86
2023-07-03T03:16:28.292Z,175.72
2023-07-03T03:17:28.301Z,176.26
2023-07-03T03:18:28.305Z,178.34
2023-07-03T03:19:28.265Z,173.73
2023-07-03T03:20:28.322Z,173.87
2023-07-03T03:21:28.311Z,172.33
2023-07-03T03:22:28.281Z,173.14
2023-07-03T03:23:28.309Z,174.15
2023-07-03T03:24:28.342Z,174.00
2023-07-03T03:25:28.340Z,174.62
2023-07-03T03:26:28.352Z,173.93
2023-07-03T03:27:28.331Z,173.20
2023-07-03T03:28:28.365Z,172.64
2023-07-03T03:29:28.331Z,172.08
2023-07-03T03:30:28.391Z,172.57
2023-07-03T03:31:28.389Z,171.57
2023-07-03T03:32:28.417Z,171.90
2023-07-03T03:33:28.359Z,172.97
2023-07-03T03:34:28.393Z,174.68
2023-07-03T03:35:28.395Z,172.65
2023-07-03T03:36:28.403Z,171.15
2023-07-03T03:37:28.404Z,171.76
2023-07-03T03:38:28.397Z,172.26
2023-07-03T03:39:28.392Z,173.58
2023-07-03T03:40:28.411Z,176.06
2023-07-03T03:41:28.421Z,177.05
2023-07-03T03:42:28.430Z,180.67
2023-07-03T03:43:28.477Z,178.79
2023-07-03T03:44:28.449Z,178.47
2023-07-03T03:45:28.462Z,181.30
2023-07-03T03:46:28.476Z,179.27
2023-07-03T03:47:28.482Z,180.38
2023-07-03T03:48:28.528Z,181.94
2023-07-03T03:49:28.457Z,185.02
2023-07-03T03:50:28.461Z,185.69
2023-07-03T03:51:28.511Z,187.88
2023-07-03T03:52:28.467Z,188.70
2023-07-03T03:53:28.479Z,189.06
2023-07-03T03:54:28.483Z,189.67
2023-07-03T03:55:28.490Z,189.08
2023-07-03T03:56:28.478Z,187.80
2023-07-03T03:57:28.507Z,189.16
2023-07-03T03:58:28.508Z,189.02
2023-07-03T03:59:28.485Z,189.55
2023-07-03T04:00:28.557Z,188.03
2023-07-03T04:01:28.531Z,188.91
2023-07-03T04:02:28.525Z,187.20
2023-07-03T04:03:28.560Z,186.74
2023-07-03T04:04:28.532Z,186.47
2023-07-03T04:05:28.524Z,187.12
2023-07-03T04:06:28.557Z,186.86
2023-07-03T04:07:28.541Z,185.18
2023-07-03T04:08:28.576Z,185.47
2023-07-03T04:09:28.582Z,185.36
2023-07-03T04:10:28.586Z,184.29
2023-07-03T04:11:28.578Z,183.05
2023-07-03T04:12:28.598Z,183.70
2023-07-03T04:13:28.642Z,182.20
2023-07-03T04:14:28.631Z,181.55
2023-07-03T04:15:28.623Z,179.57
2023-07-03T04:16:28.686Z,178.90
2023-07-03T04:17:28.697Z,177.95
2023-07-03T04:18:28.630Z,176.71
2023-07-03T04:19:28.746Z,176.16
2023-07-03T04:20:28.675Z,175.78
2023-07-03T04:21:28.701Z,175.58
2023-07-03T04:22:28.722Z,174.80
2023-07-03T04:23:28.745Z,172.59
2023-07-03T04:24:28.760Z,171.83
2023-07-03T04:25:28.742Z,173.20
2023-07-03T04:26:28.787Z,173.03
2023-07-03T04:27:28.799Z,173.20
2023-07-03T04:28:28.831Z,173.07
2023-07-03T04:29:28.825Z,173.30
2023-07-03T04:30:28.847Z,174.57
2023-07-03T04:31:28.931Z,173.54
2023-07-03T04:32:28.893Z,175.52
2023-07-03T04:33:28.875Z,175.31
2023-07-03T04:34:28.891Z,174.47
2023-07-03T04:35:28.919Z,174.02
2023-07-03T04:36:28.926Z,175.11
2023-07-03T04:37:28.950Z,175.31
2023-07-03T04:38:28.964Z,174.48
2023-07-03T04:39:28.997Z,175.85
2023-07-03T04:40:30.870Z,176.48
2023-07-03T04:41:29.033Z,175.02
2023-07-03T04:42:29.075Z,174.98
2023-07-03T04:43:29.041Z,175.51
2023-07-03T04:44:29.153Z,175.16
2023-07-03T04:45:29.090Z,175.21
2023-07-03T04:46:29.171Z,175.36
2023-07-03T04:47:29.212Z,176.29
2023-07-03T04:48:29.162Z,175.36
2023-07-03T04:49:29.195Z,176.55
2023-07-03T04:50:29.209Z,177.56
2023-07-03T04:51:29.250Z,178.71
2023-07-03T04:52:29.253Z,179.50
2023-07-03T04:53:29.288Z,179.51
2023-07-03T04:54:29.307Z,178.71
2023-07-03T04:55:29.355Z,179.99
2023-07-03T04:56:29.409Z,178.97
2023-07-03T04:57:29.418Z,180.48
2023-07-03T04:58:29.394Z,179.79
2023-07-03T04:59:29.428Z,181.10
2023-07-03T05:00:29.512Z,180.56
2023-07-03T05:01:29.493Z,181.19
2023-07-03T05:02:31.824Z,181.76
2023-07-03T05:03:29.545Z,184.52
2023-07-03T05:04:29.493Z,183.93
2023-07-03T05:05:29.517Z,184.80
2023-07-03T05:06:29.522Z,183.91
2023-07-03T05:07:29.529Z,184.53
2023-07-03T05:08:29.537Z,185.26
2023-07-03T05:09:29.531Z,185.22
2023-07-03T05:10:29.529Z,186.40
2023-07-03T05:11:29.552Z,186.47
2023-07-03T05:12:29.528Z,188.35
2023-07-03T05:13:29.567Z,187.64
2023-07-03T05:14:29.589Z,189.92
2023-07-03T05:15:29.563Z,188.46
2023-07-03T05:16:29.883Z,188.82
2023-07-03T05:17:29.597Z,188.47
2023-07-03T05:18:29.592Z,188.56
2023-07-03T05:19:29.626Z,188.03
2023-07-03T05:20:29.614Z,189.31
2023-07-03T05:21:29.611Z,187.04
2023-07-03T05:22:29.645Z,189.67
2023-07-03T05:23:29.654Z,189.11
2023-07-03T05:24:29.640Z,190.79
2023-07-03T05:25:29.653Z,191.34
2023-07-03T05:26:29.656Z,191.49
2023-07-03T05:27:29.658Z,191.98
2023-07-03T05:28:29.636Z,192.24
2023-07-03T05:29:29.682Z,192.06
2023-07-03T05:30:29.677Z,191.88
2023-07-03T05:31:29.906Z,190.36
2023-07-03T05:32:29.683Z,190.67
2023-07-03T05:33:29.679Z,191.78
2023-07-03T05:34:29.732Z,190.46
2023-07-03T05:35:29.719Z,190.50
2023-07-03T05:36:29.750Z,192.23
2023-07-03T05:37:29.801Z,193.34
2023-07-03T05:38:29.838Z,195.23
2023-07-03T05:39:32.585Z,195.69
2023-07-03T05:40:29.831Z,198.50
2023-07-03T05:41:29.832Z,200.00
2023-07-03T05:42:29.805Z,200.00
2023-07-03T05:43:29.818Z,200.00
2023-07-03T05:44:29.804Z,198.84
2023-07-03T05:45:29.797Z,200.00
2023-07-03T05:46:29.793Z,199.70
2023-07-03T05:47:29.768Z,200.00
2023-07-03T05:48:29.720Z,200.00
2023-07-03T05:49:29.737Z,199.71
2023-07-03T05:50:29.730Z,198.79
2023-07-03T05:51:29.726Z,199.61
2023-07-03T05:52:29.697Z,200.00
2023-07-03T05:53:29.658Z,198.64
2023-07-03T05:54:29.646Z,199.40
2023-07-03T05:55:29.651Z,199.82
2023-07-03T05:56:29.712Z,199.32
2023-07-03T05:57:29.694Z,200.00
2023-07-03T05:58:29.640Z,200.00
2023-07-03T05:59:29.613Z,200.00
2023-07-03T06:00:29.598Z,199.47
2023-07-03T06:01:29.691Z,198.99
2023-07-03T06:02:29.599Z,200.00
2023-07-03T06:03:29.633Z,200.00
2023-07-03T06:04:29.594Z,200.00
2023-07-03T06:05:29.588Z,200.13
2023-07-03T06:06:29.554Z,198.46
2023-07-03T06:07:29.549Z,198.77
2023-07-03T06:08:29.556Z,197.66
2023-07-03T06:09:29.550Z,196.07
2023-07-03T06:10:29.595Z,196.26
2023-07-03T06:11:29.524Z,195.53
2023-07-03T06:12:29.508Z,198.28
2023-07-03T06:13:29.501Z,199.05
2023-07-03T06:14:29.523Z,198.57
2023-07-03T06:15:29.489Z,199.21
2023-07-03T06:16:29.468Z,201.65
2023-07-03T06:17:29.511Z,200.44
2023-07-03T06:18:29.446Z,200.11
2023-07-03T06:19:29.455Z,199.65
2023-07-03T06:20:29.464Z,199.98
2023-07-03T06:21:29.417Z,198.48
2023-07-03T06:22:29.387Z,198.72
2023-07-03T06:23:29.390Z,196.32
2023-07-03T06:24:29.373Z,196.47
2023-07-03T06:25:29.353Z,195.89
2023-07-03T06:26:29.351Z,200.00
2023-07-03T06:27:29.329Z,199.80
2023-07-03T06:28:29.322Z,199.58
2023-07-03T06:29:29.321Z,196.50
2023-07-03T06:30:29.374Z,198.13
2023-07-03T06:31:29.351Z,198.31
2023-07-03T06:32:29.288Z,199.08
2023-07-03T06:33:29.263Z,200.00
2023-07-03T06:34:29.228Z,199.52
2023-07-03T06:35:29.291Z,199.08
2023-07-03T06:36:29.224Z,199.20
2023-07-03T06:37:29.338Z,199.43
2023-07-03T06:38:29.201Z,198.17
2023-07-03T06:39:29.139Z,200.17
2023-07-03T06:40:29.255Z,196.54
2023-07-03T06:41:29.107Z,199.28
2023-07-03T06:42:29.121Z,199.91
2023-07-03T06:43:29.075Z,198.36
2023-07-03T06:44:29.077Z,199.61
2023-07-03T06:45:29.046Z,182.14
2023-07-03T06:46:29.095Z,169.39
2023-07-03T06:47:29.042Z,162.56
2023-07-03T06:48:29.005Z,161.77
2023-07-03T06:49:29.014Z,158.28
2023-07-03T06:50:29.041Z,160.09
2023-07-03T06:51:28.966Z,158.11
2023-07-03T06:52:28.945Z,159.64
2023-07-03T06:53:29.042Z,156.30
2023-07-03T06:54:28.989Z,158.17
2023-07-03T06:55:28.918Z,158.29
2023-07-03T06:56:28.927Z,160.22
2023-07-03T06:57:28.865Z,161.43
2023-07-03T06:58:28.880Z,159.01
2023-07-03T06:59:28.908Z,157.79
2023-07-03T07:00:28.957Z,157.07
2023-07-03T07:01:28.960Z,155.82
2023-07-03T07:02:28.985Z,151.90
2023-07-03T07:03:29.061Z,151.75
2023-07-03T07:04:29.902Z,148.93
2023-07-03T07:05:29.049Z,144.71
2023-07-03T07:06:29.083Z,145.61
2023-07-03T07:07:29.086Z,150.38
2023-07-03T07:08:29.072Z,145.07
2023-07-03T07:09:29.239Z,140.15
2023-07-03T07:10:29.108Z,142.58
2023-07-03T07:11:29.110Z,142.32
2023-07-03T07:12:29.133Z,139.13
2023-07-03T07:13:29.188Z,138.11
2023-07-03T07:14:29.151Z,137.68
2023-07-03T07:15:29.193Z,140.89
2023-07-03T07:16:29.265Z,141.02
2023-07-03T07:17:45.890Z,132.29
2023-07-03T07:18:30.206Z,132.33
2023-07-03T07:19:29.202Z,130.81
2023-07-03T07:20:29.151Z,129.80
2023-07-03T07:21:29.170Z,125.77
2023-07-03T07:22:29.130Z,118.75
2023-07-03T07:23:29.134Z,116.60
2023-07-03T07:24:29.174Z,117.09
2023-07-03T07:25:29.188Z,120.03
2023-07-03T07:26:29.161Z,120.26
2023-07-03T07:27:29.133Z,111.24
2023-07-03T07:28:29.168Z,112.39
2023-07-03T07:29:29.111Z,111.55
2023-07-03T07:30:29.139Z,116.53
2023-07-03T07:31:29.166Z,108.27
2023-07-03T07:32:29.155Z,111.59
2023-07-03T07:33:29.132Z,104.78
2023-07-03T07:34:29.151Z,107.35
2023-07-03T07:36:47.257Z,50.00
2023-07-03T07:37:47.249Z,50.00
2023-07-03T07:38:47.233Z,50.00
2023-07-03T07:39:47.217Z,50.00
2023-07-03T07:40:47.337Z,50.00
2023-07-03T07:41:47.259Z,56.51
2023-07-03T07:42:47.262Z,49.42
2023-07-03T07:43:47.233Z,54.99
2023-07-03T07:44:47.234Z,77.50
2023-07-03T07:45:47.238Z,93.83
2023-07-03T07:46:47.496Z,101.54
2023-07-03T07:47:47.317Z,112.71
2023-07-03T07:48:47.289Z,115.60
2023-07-03T07:49:47.234Z,129.08
2023-07-03T07:50:47.257Z,135.66
2023-07-03T07:51:47.244Z,133.17
2023-07-03T07:52:47.311Z,131.28
2023-07-03T07:53:47.241Z,140.03
2023-07-03T07:54:47.207Z,149.42
2023-07-03T07:55:47.233Z,153.21
2023-07-03T07:56:47.199Z,156.86
2023-07-03T07:57:47.207Z,168.54
2023-07-03T07:58:47.184Z,160.18
2023-07-03T07:59:47.161Z,163.24
2023-07-03T08:00:47.172Z,170.61
2023-07-03T08:01:47.163Z,159.53
2023-07-03T08:02:47.154Z,166.36
2023-07-03T08:03:47.194Z,159.08
2023-07-03T08:04:47.244Z,164.34
2023-07-03T08:05:47.098Z,175.42
2023-07-03T08:06:47.112Z,177.87
2023-07-03T08:07:47.067Z,169.72
2023-07-03T08:08:47.055Z,169.69
2023-07-03T08:09:47.075Z,172.30
2023-07-03T08:10:47.055Z,173.36
2023-07-03T08:11:47.072Z,175.75
2023-07-03T08:12:47.148Z,167.04
2023-07-03T08:13:47.060Z,166.44
2023-07-03T08:14:47.041Z,172.31
2023-07-03T08:15:47.020Z,172.74
2023-07-03T08:16:47.073Z,175.24
2023-07-03T08:17:47.996Z,172.82
2023-07-03T08:18:49.651Z,175.33
2023-07-03T08:19:47.012Z,174.84
2023-07-03T08:20:46.983Z,175.03
2023-07-03T08:21:47.023Z,182.35
2023-07-03T08:22:46.991Z,180.18
2023-07-03T08:23:46.979Z,180.11
2023-07-03T08:24:47.005Z,185.92
2023-07-03T08:25:46.974Z,180.16
2023-07-03T08:26:46.959Z,176.15
2023-07-03T08:27:46.984Z,166.51
2023-07-03T08:28:47.056Z,170.52
2023-07-03T08:29:46.937Z,171.80
2023-07-03T08:30:46.960Z,161.58
2023-07-03T08:31:46.945Z,165.54
2023-07-03T08:32:47.025Z,168.07
2023-07-03T08:33:46.967Z,163.64
2023-07-03T08:37:46.882Z,131.10
2023-07-03T08:38:46.896Z,116.79
2023-07-03T08:39:46.869Z,129.22
2023-07-03T08:40:46.844Z,144.44
2023-07-03T08:41:46.871Z,139.00
2023-07-03T08:42:46.854Z,138.79
2023-07-03T08:43:46.846Z,152.35
2023-07-03T08:44:46.928Z,165.42
2023-07-03T08:45:46.864Z,164.12
2023-07-03T08:46:55.451Z,178.69
2023-07-03T08:47:47.810Z,179.54
2023-07-03T08:48:46.794Z,182.92
2023-07-03T08:49:46.776Z,188.44
2023-07-03T08:50:46.759Z,199.40
2023-07-03T08:51:46.765Z,217.21
2023-07-03T08:52:46.760Z,199.97
2023-07-03T08:53:46.717Z,200.00
2023-07-03T08:54:46.724Z,198.91
2023-07-03T08:55:46.739Z,199.35
2023-07-03T08:56:46.697Z,199.30
2023-07-03T08:57:46.692Z,198.42
2023-07-03T08:58:46.706Z,199.53
2023-07-03T08:59:46.688Z,199.97
2023-07-03T09:00:46.745Z,199.23
2023-07-03T09:01:46.785Z,199.87
2023-07-03T09:02:46.748Z,199.84
2023-07-03T09:03:46.773Z,200.00
2023-07-03T09:04:46.680Z,200.00
2023-07-03T09:05:46.612Z,200.00
2023-07-03T09:06:46.609Z,199.33
2023-07-03T09:07:46.570Z,199.46
2023-07-03T09:08:46.575Z,199.64
2023-07-03T09:09:46.590Z,200.00
2023-07-03T09:10:46.619Z,199.02
2023-07-03T09:11:46.642Z,200.00
2023-07-03T09:12:46.622Z,199.76
2023-07-03T09:13:46.669Z,200.00
2023-07-03T09:14:46.677Z,200.00
2023-07-03T09:15:46.674Z,199.91
2023-07-03T09:16:46.794Z,200.00
2023-07-03T09:17:46.737Z,199.51
2023-07-03T09:18:47.080Z,199.34
2023-07-03T09:19:46.885Z,199.85
2023-07-03T09:20:46.749Z,199.68
2023-07-03T09:21:46.779Z,198.58
2023-07-03T09:22:46.798Z,199.41
2023-07-03T09:23:46.797Z,199.37
2023-07-03T09:24:46.797Z,199.31
2023-07-03T09:25:46.810Z,198.09
2023-07-03T09:26:47.852Z,199.33
2023-07-03T09:27:48.325Z,200.00
2023-07-03T09:28:46.832Z,198.86
2023-07-03T09:29:46.901Z,198.22
2023-07-03T09:30:47.763Z,197.00
2023-07-03T09:31:46.872Z,197.22
2023-07-03T09:32:46.940Z,191.91
2023-07-03T09:33:46.872Z,176.94
2023-07-03T09:34:46.793Z,166.07
2023-07-03T09:35:46.794Z,162.34
2023-07-03T09:36:46.805Z,163.68
2023-07-03T09:37:46.826Z,162.67
2023-07-03T09:38:46.825Z,160.46
2023-07-03T09:39:46.914Z,159.89
2023-07-03T09:40:47.058Z,151.97
2023-07-03T09:41:47.888Z,136.10
2023-07-03T09:42:49.744Z,138.20
2023-07-03T09:43:46.837Z,138.35
2023-07-03T09:44:46.917Z,138.83
2023-07-03T09:45:46.830Z,137.12
2023-07-03T09:46:46.840Z,130.19
2023-07-03T09:47:46.847Z,123.14
2023-07-03T09:48:47.037Z,121.22
2023-07-03T09:49:46.791Z,118.30
2023-07-03T09:51:04.936Z,118.23
2023-07-03T09:51:47.777Z,115.45
2023-07-03T09:52:59.605Z,111.31
2023-07-03T09:53:47.740Z,109.27
2023-07-03T09:54:46.737Z,103.37
2023-07-03T09:55:46.750Z,103.15
2023-07-03T09:56:46.722Z,107.30
2023-07-03T09:57:46.709Z,111.43
2023-07-03T09:58:46.692Z,111.29
2023-07-03T09:59:46.682Z,110.09
2023-07-03T10:00:48.424Z,107.33
2023-07-03T10:03:46.794Z,98.23
2023-07-03T10:06:46.730Z,100.52
2023-07-03T10:07:46.724Z,101.16
2023-07-03T10:08:46.813Z,101.58
2023-07-03T10:11:46.652Z,100.34
2023-07-03T10:12:46.602Z,97.31
2023-07-03T10:13:46.538Z,99.56
2023-07-03T10:14:46.548Z,99.84
2023-07-03T10:15:46.505Z,96.38
2023-07-03T10:16:46.594Z,89.86
2023-07-03T10:17:46.584Z,89.67
2023-07-03T10:18:46.487Z,89.18
2023-07-03T10:19:46.473Z,86.39
2023-07-03T10:20:46.564Z,80.58
2023-07-03T10:21:46.489Z,75.63
2023-07-03T10:22:46.470Z,74.81
2023-07-03T10:23:46.455Z,72.17
2023-07-03T10:24:46.476Z,72.62
2023-07-03T10:25:46.427Z,67.18
2023-07-03T10:26:46.443Z,64.07
2023-07-03T10:27:46.457Z,63.82
2023-07-03T10:28:46.466Z,65.07
2023-07-03T10:29:46.426Z,60.25
2023-07-03T10:30:46.413Z,63.69
2023-07-03T10:31:46.564Z,64.38
2023-07-03T10:32:46.451Z,63.80
2023-07-03T10:33:46.394Z,59.95
2023-07-03T10:34:46.406Z,56.99
2023-07-03T10:35:46.370Z,56.02
2023-07-03T10:36:46.447Z,56.76
2023-07-03T10:37:46.337Z,57.13
2023-07-03T10:38:46.364Z,56.16
2023-07-03T10:39:46.339Z,56.71
2023-07-03T10:40:46.324Z,57.00
2023-07-03T10:41:46.338Z,55.59
2023-07-03T10:42:46.329Z,53.06
2023-07-03T10:43:46.311Z,56.37
2023-07-03T10:44:46.292Z,59.56
2023-07-03T10:45:46.332Z,55.62
2023-07-03T10:46:46.375Z,51.21
2023-07-03T10:47:46.428Z,51.20
2023-07-03T10:48:46.285Z,52.89
2023-07-03T10:49:46.265Z,51.09
2023-07-03T10:50:46.280Z,51.35
2023-07-03T10:51:46.283Z,50.00
2023-07-03T10:52:46.421Z,50.88
2023-07-03T10:53:46.302Z,51.63
2023-07-03T10:54:46.337Z,49.90
2023-07-03T10:55:46.349Z,50.00
2023-07-03T10:56:46.314Z,50.30
2023-07-03T10:57:46.309Z,50.81
2023-07-03T10:58:46.322Z,50.00
2023-07-03T10:59:46.308Z,51.80
2023-07-03T11:00:46.344Z,52.09
2023-07-03T11:01:46.449Z,50.97
2023-07-03T11:02:46.424Z,53.43
2023-07-03T11:03:47.821Z,51.92
2023-07-03T11:04:46.437Z,51.99
2023-07-03T11:05:46.383Z,50.24
2023-07-03T11:06:46.380Z,50.58
2023-07-03T11:07:46.429Z,50.62
2023-07-03T11:08:46.495Z,50.22
2023-07-03T11:09:46.431Z,50.00
2023-07-03T11:10:46.411Z,51.19
2023-07-03T11:11:46.472Z,50.00
2023-07-03T11:12:46.451Z,50.00
2023-07-03T11:13:46.493Z,49.74
2023-07-03T11:14:46.477Z,50.17
2023-07-03T11:15:46.516Z,50.21
2023-07-03T11:16:46.555Z,50.95
2023-07-03T11:22:46.558Z,50.18
2023-07-03T11:23:46.572Z,50.40
2023-07-03T11:24:46.553Z,51.38
2023-07-03T11:28:46.523Z,54.85
2023-07-03T11:29:46.544Z,50.95
2023-07-03T11:30:46.585Z,49.83
2023-07-03T11:31:46.799Z,50.44
2023-07-03T11:32:46.623Z,51.28
2023-07-03T11:39:46.592Z,52.59
2023-07-03T11:40:46.626Z,52.88
2023-07-03T11:43:46.552Z,52.52
2023-07-03T11:44:46.564Z,51.13
2023-07-03T11:45:46.594Z,51.13
2023-07-03T11:46:46.708Z,51.47
2023-07-03T11:47:46.622Z,49.92
2023-07-03T11:48:46.715Z,52.87
2023-07-03T11:49:46.594Z,50.37
2023-07-03T11:50:46.597Z,52.59
2023-07-03T11:51:46.617Z,52.98
2023-07-03T11:52:46.614Z,54.20
2023-07-03T11:53:46.593Z,53.02
2023-07-03T11:54:46.595Z,53.20
2023-07-03T11:55:46.611Z,51.32
2023-07-03T11:56:46.585Z,52.86
2023-07-03T11:57:49.963Z,53.61
2023-07-03T11:58:47.596Z,53.77
2023-07-03T11:59:46.637Z,54.15
2023-07-03T12:00:46.672Z,55.00
2023-07-03T12:01:46.633Z,56.06
2023-07-03T12:02:46.744Z,56.50
2023-07-03T12:03:46.702Z,55.86
2023-07-03T12:04:49.098Z,55.65
2023-07-03T12:05:46.668Z,58.29
2023-07-03T12:06:46.660Z,56.37
2023-07-03T12:07:46.674Z,54.45
2023-07-03T12:08:46.678Z,56.52
2023-07-03T12:09:46.690Z,57.03
2023-07-03T12:10:46.713Z,58.07
2023-07-03T12:11:46.712Z,57.56
2023-07-03T12:12:46.716Z,58.02
2023-07-03T12:13:46.799Z,54.82
2023-07-03T12:14:46.713Z,54.84
2023-07-03T12:15:46.780Z,55.34
2023-07-03T12:16:46.768Z,56.65
2023-07-03T12:17:46.869Z,54.50
2023-07-03T12:18:46.751Z,53.52
2023-07-03T12:19:46.725Z,54.48
2023-07-03T12:20:46.767Z,54.46
2023-07-03T12:21:46.810Z,54.50
2023-07-03T12:22:46.799Z,56.69
2023-07-03T12:23:49.197Z,56.22
2023-07-03T12:24:47.109Z,56.23
2023-07-03T12:25:47.039Z,54.91
2023-07-03T12:26:47.062Z,55.42
2023-07-03T12:27:47.090Z,53.96
2023-07-03T12:28:47.086Z,51.45
2023-07-03T12:29:47.129Z,51.55
2023-07-03T12:30:47.202Z,51.21
2023-07-03T12:31:47.193Z,52.35
2023-07-03T12:32:47.233Z,51.54
2023-07-03T12:33:47.222Z,50.66
2023-07-03T12:34:47.286Z,50.92
2023-07-03T12:35:47.359Z,50.21
2023-07-03T12:36:50.598Z,50.31
2023-07-03T12:37:48.339Z,50.22
2023-07-03T12:38:47.325Z,50.38
2023-07-03T12:39:47.357Z,47.42
2023-07-03T12:40:47.352Z,46.24
2023-07-03T12:41:47.359Z,46.10
2023-07-03T12:42:47.390Z,51.87
2023-07-03T12:43:50.902Z,51.27
2023-07-03T12:44:48.396Z,51.29
2023-07-03T12:45:47.439Z,49.34
2023-07-03T12:46:47.468Z,48.82
2023-07-03T12:47:47.457Z,49.94
2023-07-03T12:48:47.350Z,50.71
2023-07-03T12:49:47.387Z,51.56
2023-07-03T12:50:47.373Z,50.03
2023-07-03T12:51:48.732Z,51.05
2023-07-03T12:52:47.358Z,50.73
2023-07-03T12:53:47.360Z,51.76
2023-07-03T12:54:47.850Z,50.13
2023-07-03T12:55:47.382Z,51.87
2023-07-03T12:56:47.387Z,51.27
2023-07-03T12:57:47.402Z,51.54
2023-07-03T12:58:47.379Z,50.83
2023-07-03T12:59:47.385Z,52.84